createdAt,value
2023-02-18T00:01:20.849Z,154.67
2023-02-18T00:03:49.341Z,153.93
2023-02-18T00:06:19.185Z,154.73
2023-02-18T00:08:47.895Z,154.23
2023-02-18T00:11:17.975Z,154.33
2023-02-18T00:13:51.305Z,154.17
2023-02-18T00:16:19.130Z,154.17
2023-02-18T00:18:46.963Z,153.57
2023-02-18T00:21:14.877Z,153.60
2023-02-18T00:23:44.103Z,153.83
2023-02-18T00:26:14.763Z,154.00
2023-02-18T00:28:44.520Z,153.20
2023-02-18T00:31:14.385Z,153.80
2023-02-18T00:33:43.073Z,153.73
2023-02-18T00:36:13.110Z,153.60
2023-02-18T00:38:41.140Z,153.30
2023-02-18T00:41:08.990Z,153.30
2023-02-18T00:43:37.006Z,153.17
2023-02-18T00:46:07.793Z,152.97
2023-02-18T00:48:36.888Z,153.50
2023-02-18T00:51:05.893Z,153.33
2023-02-18T00:53:34.144Z,152.33
2023-02-18T00:56:02.487Z,153.03
2023-02-18T00:58:30.679Z,152.60
2023-02-18T01:00:58.593Z,153.53
2023-02-18T01:03:28.079Z,153.20
2023-02-18T01:05:56.122Z,153.43
2023-02-18T01:08:24.088Z,153.40
2023-02-18T01:10:55.391Z,153.10
2023-02-18T01:13:23.385Z,153.23
2023-02-18T01:15:51.350Z,153.27
2023-02-18T01:18:19.831Z,153.53
2023-02-18T01:20:49.629Z,153.50
2023-02-18T01:23:18.422Z,153.77
2023-02-18T01:25:46.302Z,153.23
2023-02-18T01:28:16.096Z,153.33
2023-02-18T01:30:45.113Z,153.53
2023-02-18T01:33:13.096Z,153.53
2023-02-18T01:35:41.753Z,153.50
2023-02-18T01:38:11.201Z,152.97
2023-02-18T01:40:47.009Z,153.23
2023-02-18T01:43:16.340Z,153.57
2023-02-18T01:45:52.475Z,153.47
2023-02-18T01:48:25.856Z,153.30
2023-02-18T01:51:01.119Z,153.13
2023-02-18T01:53:36.693Z,153.43
2023-02-18T01:56:09.053Z,153.83
2023-02-18T01:58:38.016Z,153.47
2023-02-18T02:01:06.767Z,153.67
2023-02-18T02:03:35.826Z,153.40
2023-02-18T02:06:03.686Z,154.03
2023-02-18T02:08:32.898Z,153.53
2023-02-18T02:11:09.640Z,153.77
2023-02-18T02:13:51.734Z,152.93
2023-02-18T02:16:27.479Z,152.97
2023-02-18T02:19:06.749Z,153.73
2023-02-18T02:22:11.363Z,153.53
2023-02-18T02:25:26.399Z,154.43
2023-02-18T02:28:29.800Z,154.10
2023-02-18T02:31:26.291Z,154.40
2023-02-18T02:34:31.237Z,155.00
2023-02-18T02:37:07.108Z,154.10
2023-02-18T02:39:42.889Z,154.00
2023-02-18T02:42:19.964Z,153.77
2023-02-18T02:44:55.869Z,153.60
2023-02-18T02:47:29.940Z,154.50
2023-02-18T02:50:04.331Z,153.80
2023-02-18T02:52:37.239Z,153.83
2023-02-18T02:55:07.106Z,153.93
2023-02-18T02:57:46.185Z,154.33
2023-02-18T03:00:22.790Z,153.70
2023-02-18T03:03:16.245Z,154.23
2023-02-18T03:05:56.532Z,153.67
2023-02-18T03:08:34.044Z,154.47
2023-02-18T03:11:07.727Z,154.40
2023-02-18T03:13:52.717Z,153.70
2023-02-18T03:16:28.737Z,153.60
2023-02-18T03:19:04.379Z,153.40
2023-02-18T03:21:36.961Z,153.73
2023-02-18T03:24:11.148Z,153.77
2023-02-18T03:26:43.541Z,153.00
2023-02-18T03:29:15.233Z,153.43
2023-02-18T03:31:46.466Z,153.73
2023-02-18T03:34:18.796Z,153.60
2023-02-18T03:36:47.086Z,154.10
2023-02-18T03:39:18.646Z,153.57
2023-02-18T03:41:47.460Z,153.83
2023-02-18T03:44:15.360Z,153.57
2023-02-18T03:46:45.224Z,154.73
2023-02-18T03:49:15.278Z,154.07
2023-02-18T03:51:43.871Z,153.53
2023-02-18T03:54:14.235Z,153.50
2023-02-18T03:56:44.328Z,153.33
2023-02-18T03:59:13.316Z,153.30
2023-02-18T04:01:41.412Z,152.87
2023-02-18T04:04:09.368Z,153.03
2023-02-18T04:06:37.378Z,152.77
2023-02-18T04:09:08.743Z,152.90
2023-02-18T04:11:37.966Z,152.33
2023-02-18T04:14:07.747Z,152.87
2023-02-18T04:16:35.738Z,152.67
2023-02-18T04:19:03.687Z,152.67
2023-02-18T04:21:31.587Z,153.33
2023-02-18T04:23:59.437Z,153.07
2023-02-18T04:26:27.694Z,153.03
2023-02-18T04:28:55.497Z,152.67
2023-02-18T04:31:24.801Z,153.40
2023-02-18T04:33:52.903Z,153.57
2023-02-18T04:36:20.825Z,153.47
2023-02-18T04:38:48.749Z,153.30
2023-02-18T04:41:16.664Z,152.93
2023-02-18T04:43:44.528Z,153.03
2023-02-18T04:46:12.414Z,153.53
2023-02-18T04:48:42.135Z,153.00
2023-02-18T04:51:10.057Z,153.20
2023-02-18T04:53:37.932Z,152.87
2023-02-18T04:56:06.475Z,153.70
2023-02-18T04:58:34.457Z,153.63
2023-02-18T05:01:03.224Z,152.87
2023-02-18T05:03:32.033Z,153.00
2023-02-18T05:06:01.212Z,153.10
2023-02-18T05:08:29.081Z,153.10
2023-02-18T05:10:57.019Z,153.13
2023-02-18T05:13:24.885Z,153.57
2023-02-18T05:15:53.136Z,152.87
2023-02-18T05:18:21.022Z,153.20
2023-02-18T05:20:49.396Z,152.67
2023-02-18T05:23:20.118Z,152.97
2023-02-18T05:25:48.255Z,153.57
2023-02-18T05:28:16.101Z,153.37
2023-02-18T05:30:43.966Z,153.47
2023-02-18T05:33:11.907Z,153.07
2023-02-18T05:35:39.766Z,152.73
2023-02-18T05:38:07.726Z,153.03
2023-02-18T05:40:37.058Z,153.07
2023-02-18T05:43:04.905Z,152.97
2023-02-18T05:45:32.997Z,152.60
2023-02-18T05:48:00.835Z,152.77
2023-02-18T05:50:28.774Z,152.77
2023-02-18T05:52:56.653Z,152.87
2023-02-18T05:55:25.106Z,152.40
2023-02-18T05:57:54.562Z,152.63
2023-02-18T06:00:22.682Z,152.90
2023-02-18T06:02:50.692Z,152.77
2023-02-18T06:05:18.646Z,153.07
2023-02-18T06:07:46.480Z,152.50
2023-02-18T06:10:14.356Z,153.10
2023-02-18T06:12:42.306Z,152.63
2023-02-18T06:15:11.759Z,152.33
2023-02-18T06:17:39.637Z,152.20
2023-02-18T06:20:08.660Z,152.53
2023-02-18T06:22:36.490Z,152.47
2023-02-18T06:25:04.377Z,152.47
2023-02-18T06:27:32.229Z,151.83
2023-02-18T06:30:00.261Z,152.10
2023-02-18T06:32:29.628Z,152.43
2023-02-18T06:34:57.490Z,153.13
2023-02-18T06:37:25.354Z,151.87
2023-02-18T06:39:53.220Z,152.70
2023-02-18T06:42:21.080Z,152.20
2023-02-18T06:44:48.919Z,152.57
2023-02-18T06:47:16.816Z,152.10
2023-02-18T06:49:45.981Z,152.40
2023-02-18T06:52:13.813Z,152.23
2023-02-18T06:54:41.712Z,152.93
2023-02-18T06:57:09.604Z,152.87
2023-02-18T06:59:37.409Z,152.80
2023-02-18T07:02:05.353Z,152.80
2023-02-18T07:04:33.226Z,152.97
2023-02-18T07:07:02.416Z,152.63
2023-02-18T07:09:30.253Z,153.07
2023-02-18T07:11:58.428Z,152.80
2023-02-18T07:14:27.545Z,152.70
2023-02-18T07:16:55.452Z,152.90
2023-02-18T07:19:23.447Z,152.80
2023-02-18T07:21:51.556Z,152.67
2023-02-18T07:24:20.741Z,152.67
2023-02-18T07:26:48.570Z,152.67
2023-02-18T07:29:16.532Z,152.03
2023-02-18T07:31:44.555Z,153.23
2023-02-18T07:34:12.437Z,152.50
2023-02-18T07:36:40.306Z,152.33
2023-02-18T07:39:08.173Z,152.63
2023-02-18T07:41:37.381Z,152.87
2023-02-18T07:44:09.028Z,152.70
2023-02-18T07:46:40.419Z,152.77
2023-02-18T07:49:08.582Z,152.93
2023-02-18T07:51:38.329Z,152.63
2023-02-18T07:54:06.243Z,153.87
2023-02-18T07:56:34.050Z,153.30
2023-02-18T07:59:03.383Z,152.97
2023-02-18T08:01:31.325Z,153.87
2023-02-18T08:04:00.532Z,153.63
2023-02-18T08:06:31.729Z,153.03
2023-02-18T08:08:59.584Z,153.50
2023-02-18T08:11:27.514Z,153.40
2023-02-18T08:13:55.380Z,153.60
2023-02-18T08:16:24.887Z,153.23
2023-02-18T08:18:52.996Z,153.40
2023-02-18T08:21:23.058Z,153.07
2023-02-18T08:23:50.978Z,153.73
2023-02-18T08:26:19.425Z,153.63
2023-02-18T08:28:48.492Z,153.83
2023-02-18T08:31:21.590Z,153.87
2023-02-18T08:33:51.405Z,153.27
2023-02-18T08:36:19.401Z,154.03
2023-02-18T08:38:47.515Z,153.60
2023-02-18T08:41:15.641Z,153.77
2023-02-18T08:43:43.635Z,153.30
2023-02-18T08:46:16.003Z,153.53
2023-02-18T08:48:44.648Z,152.97
2023-02-18T08:51:15.973Z,153.17
2023-02-18T08:53:44.397Z,152.77
2023-02-18T08:56:13.189Z,151.83
2023-02-18T08:58:41.378Z,152.83
2023-02-18T09:01:11.359Z,151.63
2023-02-18T09:03:40.106Z,152.20
2023-02-18T09:06:08.744Z,152.60
2023-02-18T09:08:38.005Z,152.40
2023-02-18T09:11:06.715Z,151.73
2023-02-18T09:13:35.173Z,151.80
2023-02-18T09:16:05.845Z,152.03
2023-02-18T09:18:35.769Z,152.53
2023-02-18T09:21:05.113Z,152.60
2023-02-18T09:23:33.782Z,152.33
2023-02-18T09:26:05.879Z,151.93
2023-02-18T09:28:33.915Z,151.57
2023-02-18T09:31:06.540Z,152.90
2023-02-18T09:33:37.143Z,151.63
2023-02-18T09:36:05.473Z,151.47
2023-02-18T09:38:33.913Z,151.63
2023-02-18T09:41:08.459Z,151.90
2023-02-18T09:43:41.556Z,152.13
2023-02-18T09:46:18.671Z,152.80
2023-02-18T09:48:48.998Z,152.83
2023-02-18T09:51:17.946Z,152.83
2023-02-18T09:53:47.054Z,152.87
2023-02-18T09:56:28.347Z,152.27
2023-02-18T09:58:58.232Z,151.67
2023-02-18T10:01:31.445Z,152.70
2023-02-18T10:04:02.372Z,151.83
2023-02-18T10:06:33.072Z,152.50
2023-02-18T10:09:04.544Z,152.47
2023-02-18T10:11:39.109Z,152.70
2023-02-18T10:14:11.895Z,152.50
2023-02-18T10:16:39.888Z,151.83
2023-02-18T10:19:20.108Z,151.77
2023-02-18T10:21:49.010Z,151.20
2023-02-18T10:24:28.128Z,151.93
2023-02-18T10:26:58.102Z,151.50
2023-02-18T10:29:26.770Z,151.97
2023-02-18T10:32:00.388Z,152.37
2023-02-18T10:34:41.471Z,151.77
2023-02-18T10:37:25.536Z,151.47
2023-02-18T10:40:04.415Z,151.80
2023-02-18T10:42:46.261Z,151.90
2023-02-18T10:45:25.545Z,151.47
2023-02-18T10:48:08.200Z,151.37
2023-02-18T10:50:39.093Z,150.50
2023-02-18T10:53:13.516Z,151.33
2023-02-18T10:55:43.659Z,151.43
2023-02-18T10:58:30.866Z,151.47
2023-02-18T11:00:59.129Z,151.20
2023-02-18T11:03:28.430Z,150.63
2023-02-18T11:05:57.596Z,150.73
2023-02-18T11:08:28.105Z,151.13
2023-02-18T11:10:57.024Z,150.43
2023-02-18T11:13:28.847Z,151.37
2023-02-18T11:16:00.576Z,150.73
2023-02-18T11:18:34.835Z,151.00
2023-02-18T11:21:04.897Z,151.20
2023-02-18T11:23:33.245Z,150.97
2023-02-18T11:26:05.436Z,152.10
2023-02-18T11:28:43.534Z,151.10
2023-02-18T11:31:17.400Z,151.83
2023-02-18T11:33:50.061Z,150.43
2023-02-18T11:36:23.894Z,150.20
2023-02-18T11:38:54.945Z,150.20
2023-02-18T11:41:34.775Z,149.80
2023-02-18T11:44:06.837Z,149.23
2023-02-18T11:46:34.772Z,149.77
2023-02-18T11:49:22.162Z,149.30
2023-02-18T11:51:51.217Z,148.77
2023-02-18T11:54:26.557Z,149.47
2023-02-18T11:56:59.615Z,149.93
2023-02-18T11:59:30.874Z,149.87
2023-02-18T12:02:04.723Z,149.77
2023-02-18T12:04:38.957Z,150.60
2023-02-18T12:07:16.387Z,150.40
2023-02-18T12:09:48.427Z,150.80
2023-02-18T12:12:25.618Z,149.97
2023-02-18T12:14:56.320Z,150.13
2023-02-18T12:17:46.349Z,149.90
2023-02-18T12:20:38.316Z,150.80
2023-02-18T12:23:13.635Z,149.70
2023-02-18T12:25:48.261Z,150.63
2023-02-18T12:36:43.053Z,149.97
2023-02-18T12:51:47.458Z,150.70
2023-02-18T12:59:09.849Z,150.90
2023-02-18T13:13:35.890Z,150.87
2023-02-18T13:16:07.342Z,150.13
2023-02-18T13:18:38.805Z,151.70
2023-02-18T13:21:11.521Z,150.77
2023-02-18T13:23:46.710Z,150.90
2023-02-18T13:26:17.281Z,151.57
2023-02-18T13:28:52.785Z,152.13
2023-02-18T13:31:40.475Z,151.40
2023-02-18T13:34:17.133Z,150.83
2023-02-18T13:37:04.815Z,150.57
2023-02-18T13:39:33.263Z,150.23
2023-02-18T13:42:28.624Z,151.17
2023-02-18T13:45:25.391Z,151.53
2023-02-18T13:47:55.532Z,151.50
2023-02-18T13:50:34.394Z,151.77
2023-02-18T13:53:25.445Z,151.30
2023-02-18T13:55:59.357Z,151.77
2023-02-18T13:58:32.056Z,150.53
2023-02-18T14:01:05.258Z,151.47
2023-02-18T14:03:39.103Z,151.33
2023-02-18T14:06:17.714Z,150.80
2023-02-18T14:08:46.779Z,150.23
2023-02-18T14:11:41.333Z,150.60
2023-02-18T14:14:34.715Z,150.37
2023-02-18T14:17:33.403Z,150.70
2023-02-18T14:20:33.001Z,150.00
2023-02-18T14:23:01.390Z,150.07
2023-02-18T14:25:39.251Z,151.30
2023-02-18T14:28:39.933Z,150.83
2023-02-18T14:31:29.815Z,150.43
2023-02-18T14:34:18.526Z,149.90
2023-02-18T14:36:58.332Z,150.50
2023-02-18T14:39:41.314Z,150.43
2023-02-18T14:42:19.632Z,150.50
2023-02-18T14:45:02.659Z,151.53
2023-02-18T14:47:43.498Z,151.60
2023-02-18T14:50:13.962Z,150.73
2023-02-18T14:52:46.386Z,150.80
2023-02-18T14:55:21.369Z,152.00
2023-02-18T14:57:52.875Z,151.33
2023-02-18T15:00:23.930Z,150.87
2023-02-18T15:02:56.304Z,151.10
2023-02-18T15:05:27.214Z,151.80
2023-02-18T15:08:04.556Z,151.37
2023-02-18T15:10:38.930Z,150.70
2023-02-18T15:13:14.195Z,150.83
2023-02-18T15:15:44.345Z,151.23
2023-02-18T15:18:21.813Z,151.63
2023-02-18T15:20:50.206Z,151.33
2023-02-18T15:23:19.533Z,151.43
2023-02-18T15:25:52.752Z,150.67
2023-02-18T15:28:26.293Z,151.33
2023-02-18T15:30:54.393Z,151.67
2023-02-18T15:33:23.006Z,150.57
2023-02-18T15:35:50.940Z,150.80
2023-02-18T15:38:21.494Z,150.90
2023-02-18T15:40:53.049Z,151.03
2023-02-18T15:43:25.001Z,150.80
2023-02-18T15:45:55.696Z,151.47
2023-02-18T15:48:33.143Z,150.77
2023-02-18T15:51:16.342Z,151.33
2023-02-18T15:53:49.876Z,151.70
2023-02-18T15:56:22.447Z,151.97
2023-02-18T15:58:57.786Z,151.97
2023-02-18T16:01:28.711Z,151.50
2023-02-18T16:03:57.925Z,151.73
2023-02-18T16:06:28.690Z,151.23
2023-02-18T16:09:01.352Z,150.87
2023-02-18T16:11:33.507Z,151.87
2023-02-18T16:14:01.811Z,151.83
2023-02-18T16:16:34.146Z,151.80
2023-02-18T16:19:03.239Z,151.93
2023-02-18T16:21:38.500Z,152.03
2023-02-18T16:24:25.380Z,151.90
2023-02-18T16:26:55.253Z,151.80
2023-02-18T16:29:26.203Z,151.60
2023-02-18T16:31:54.546Z,152.00
2023-02-18T16:34:22.513Z,151.67
2023-02-18T16:37:08.048Z,151.07
2023-02-18T16:39:37.445Z,150.90
2023-02-18T16:42:09.711Z,151.63
2023-02-18T16:44:38.805Z,151.33
2023-02-18T16:47:07.529Z,151.07
2023-02-18T16:49:36.176Z,151.33
2023-02-18T16:52:08.924Z,151.07
2023-02-18T16:54:38.112Z,151.17
2023-02-18T16:57:06.005Z,150.60
2023-02-18T16:59:33.903Z,150.80
2023-02-18T17:02:01.778Z,150.87
2023-02-18T17:04:29.773Z,150.23
2023-02-18T17:06:57.677Z,151.17
2023-02-18T17:09:27.604Z,150.40
2023-02-18T17:11:59.822Z,151.03
2023-02-18T17:14:27.698Z,151.13
2023-02-18T17:16:56.125Z,151.00
2023-02-18T17:19:24.341Z,150.30
2023-02-18T17:21:52.157Z,151.67
2023-02-18T17:24:20.375Z,151.67
2023-02-18T17:26:48.205Z,151.77
2023-02-18T17:29:17.398Z,151.50
2023-02-18T17:31:47.209Z,151.93
2023-02-18T17:34:19.177Z,151.97
2023-02-18T17:36:47.038Z,151.60
2023-02-18T17:39:17.228Z,151.87
2023-02-18T17:41:45.895Z,152.07
2023-02-18T17:44:17.932Z,151.50
2023-02-18T17:46:46.358Z,151.30
2023-02-18T17:49:14.254Z,151.13
2023-02-18T17:51:42.100Z,150.53
2023-02-18T17:54:14.347Z,151.17
2023-02-18T17:56:42.565Z,151.03
2023-02-18T17:59:10.861Z,150.87
2023-02-18T18:01:40.356Z,150.50
2023-02-18T18:04:16.251Z,150.77
2023-02-18T18:06:45.708Z,150.67
2023-02-18T18:09:13.602Z,150.90
2023-02-18T18:11:41.617Z,150.33
2023-02-18T18:14:11.342Z,150.60
2023-02-18T18:16:40.586Z,150.10
2023-02-18T18:19:08.502Z,150.27
2023-02-18T18:21:37.049Z,149.80
2023-02-18T18:24:05.510Z,150.37
2023-02-18T18:26:33.413Z,149.97
2023-02-18T18:29:03.605Z,150.07
2023-02-18T18:31:32.818Z,150.67
2023-02-18T18:34:02.714Z,149.80
2023-02-18T18:36:30.739Z,150.00
2023-02-18T18:38:58.598Z,150.43
2023-02-18T18:41:26.471Z,150.27
2023-02-18T18:43:54.357Z,150.43
2023-02-18T18:46:22.309Z,149.50
2023-02-18T18:48:50.162Z,150.30
2023-02-18T18:51:23.065Z,150.20
2023-02-18T18:53:50.939Z,149.93
2023-02-18T18:56:18.748Z,150.23
2023-02-18T18:58:46.954Z,150.17
2023-02-18T19:01:17.770Z,150.43
2023-02-18T19:03:47.072Z,149.70
2023-02-18T19:06:17.010Z,149.37
2023-02-18T19:08:47.759Z,149.87
2023-02-18T19:11:15.951Z,149.57
2023-02-18T19:13:45.629Z,149.03
2023-02-18T19:16:18.685Z,149.80
2023-02-18T19:18:48.324Z,148.67
2023-02-18T19:21:16.628Z,149.30
2023-02-18T19:23:45.821Z,149.83
2023-02-18T19:26:15.573Z,149.33
2023-02-18T19:28:43.668Z,149.10
2023-02-18T19:31:12.283Z,149.50
2023-02-18T19:33:40.560Z,149.03
2023-02-18T19:36:09.566Z,149.37
2023-02-18T19:38:38.005Z,149.47
2023-02-18T19:41:12.278Z,149.23
2023-02-18T19:43:40.772Z,149.47
2023-02-18T19:46:10.076Z,149.73
2023-02-18T19:48:38.025Z,149.43
2023-02-18T19:51:06.683Z,150.50
2023-02-18T19:53:34.541Z,149.10
2023-02-18T19:56:06.215Z,149.57
2023-02-18T19:58:35.766Z,149.33
2023-02-18T20:01:03.967Z,149.10
2023-02-18T20:03:31.839Z,149.40
2023-02-18T20:05:59.703Z,149.10
2023-02-18T20:08:27.603Z,149.00
2023-02-18T20:10:58.951Z,148.87
2023-02-18T20:13:27.003Z,149.97
2023-02-18T20:15:56.371Z,148.73
2023-02-18T20:18:24.307Z,149.90
2023-02-18T20:20:52.461Z,149.97
2023-02-18T20:23:20.314Z,149.07
2023-02-18T20:25:48.408Z,149.40
2023-02-18T20:28:16.585Z,149.50
2023-02-18T20:30:45.126Z,149.30
2023-02-18T20:33:14.421Z,149.27
2023-02-18T20:35:42.285Z,149.00
2023-02-18T20:38:10.097Z,150.03
2023-02-18T20:40:37.979Z,150.33
2023-02-18T20:43:05.820Z,149.53
2023-02-18T20:45:33.710Z,150.10
2023-02-18T20:48:01.553Z,148.93
2023-02-18T20:50:30.718Z,149.63
2023-02-18T20:52:58.657Z,148.47
2023-02-18T20:55:26.619Z,149.73
2023-02-18T20:57:54.450Z,150.10
2023-02-18T21:00:22.457Z,149.90
2023-02-18T21:02:50.451Z,149.87
2023-02-18T21:05:19.576Z,149.70
2023-02-18T21:07:48.766Z,148.87
2023-02-18T21:10:17.101Z,149.33
2023-02-18T21:12:45.053Z,149.87
2023-02-18T21:15:12.921Z,149.63
2023-02-18T21:17:40.833Z,149.83
2023-02-18T21:20:09.512Z,149.53
2023-02-18T21:22:37.400Z,149.30
2023-02-18T21:25:07.640Z,150.27
2023-02-18T21:27:35.534Z,149.50
2023-02-18T21:30:04.163Z,149.97
2023-02-18T21:32:32.210Z,149.97
2023-02-18T21:35:00.116Z,149.80
2023-02-18T21:37:27.988Z,150.47
2023-02-18T21:39:56.486Z,150.40
2023-02-18T21:42:25.750Z,149.33
2023-02-18T21:44:53.607Z,149.67
2023-02-18T21:47:21.424Z,148.70
2023-02-18T21:49:49.229Z,149.47
2023-02-18T21:52:17.097Z,148.87
2023-02-18T21:54:45.464Z,149.43
2023-02-18T21:57:14.861Z,149.37
2023-02-18T21:59:45.129Z,148.57
2023-02-18T22:02:17.123Z,149.60
2023-02-18T22:04:45.509Z,149.20
2023-02-18T22:07:13.518Z,149.97
2023-02-18T22:09:41.448Z,150.50
2023-02-18T22:12:11.623Z,150.00
2023-02-18T22:14:39.780Z,150.83
2023-02-18T22:17:09.181Z,150.27
2023-02-18T22:19:37.264Z,149.93
2023-02-18T22:22:05.164Z,150.33
2023-02-18T22:24:33.520Z,150.33
2023-02-18T22:27:02.000Z,150.87
2023-02-18T22:29:30.866Z,149.40
2023-02-18T22:31:58.850Z,149.33
2023-02-18T22:34:28.283Z,149.40
2023-02-18T22:36:56.097Z,149.50
2023-02-18T22:39:24.254Z,149.40
2023-02-18T22:41:52.068Z,148.80
2023-02-18T22:44:20.206Z,149.07
2023-02-18T22:46:48.088Z,149.00
2023-02-18T22:49:16.041Z,149.47
2023-02-18T22:51:45.529Z,149.63
2023-02-18T22:54:16.668Z,149.20
2023-02-18T22:56:46.202Z,150.10
2023-02-18T22:59:17.113Z,149.23
2023-02-18T23:01:49.523Z,149.67
2023-02-18T23:04:19.379Z,149.27
2023-02-18T23:06:49.567Z,149.40
2023-02-18T23:09:19.573Z,149.70
2023-02-18T23:11:52.509Z,149.47
2023-02-18T23:14:22.219Z,148.50
2023-02-18T23:17:13.591Z,149.30
2023-02-18T23:19:42.955Z,149.67
2023-02-18T23:22:14.072Z,149.50
2023-02-18T23:24:44.583Z,148.93
2023-02-18T23:27:14.647Z,148.80
2023-02-18T23:29:42.843Z,148.93
2023-02-18T23:32:11.021Z,148.33
2023-02-18T23:34:38.914Z,148.97
2023-02-18T23:37:06.901Z,149.33
2023-02-18T23:39:36.773Z,149.20
2023-02-18T23:42:04.873Z,148.57
2023-02-18T23:44:32.959Z,149.47
2023-02-18T23:47:01.131Z,148.87
2023-02-18T23:49:29.639Z,149.80
2023-02-18T23:51:58.323Z,148.80
2023-02-18T23:54:26.883Z,148.87
2023-02-18T23:56:56.056Z,149.20
2023-02-18T23:59:24.079Z,149.27
